AIQ3444 VTCC-VTBD
Flight info
| Callsign | AIQ3444 |
|---|---|
| Flight time | 0h 54m |
| Altitude | 31000 |
| Route | PANTA2N PANTA Y7 BLAFF NAKON3A |
| Aircraft | A320/M-SDE3FGHIRWY/LB1 |
Departure
| Time | 2026-04-20 20:10 |
|---|---|
| Airport | Chiang Mai International Airport (VTCC) |
Arrival
| Time | 2026-04-20 21:04 |
|---|---|
| Airport | Don Mueang International Airport (VTBD) |
| Time | Latitude | Longitude | Altitude | Speed | Heading |
|---|---|---|---|---|---|
| 2026-04-20 19:55 | 18.76844 | 98.96735 | 1032 ft | 0 kts | 90° |
| 2026-04-20 20:02 | 18.76844 | 98.96722 | 1032 ft | 4 kts | 88° |
| 2026-04-20 20:02 | 18.76842 | 98.96693 | 1032 ft | 4 kts | 81° |
| 2026-04-20 20:03 | 18.76835 | 98.96666 | 1032 ft | 4 kts | 63° |
| 2026-04-20 20:03 | 18.76821 | 98.96647 | 1032 ft | 4 kts | 11° |
| 2026-04-20 20:03 | 18.76811 | 98.96646 | 1032 ft | 0 kts | 360° |
| 2026-04-20 20:06 | 18.76892 | 98.96647 | 1032 ft | 18 kts | 0° |
| 2026-04-20 20:06 | 18.77017 | 98.96634 | 1032 ft | 18 kts | 338° |
| 2026-04-20 20:06 | 18.77074 | 98.96540 | 1032 ft | 17 kts | 235° |
| 2026-04-20 20:06 | 18.76954 | 98.96518 | 1032 ft | 20 kts | 180° |
| 2026-04-20 20:07 | 18.76810 | 98.96518 | 1032 ft | 22 kts | 180° |
| 2026-04-20 20:07 | 18.76655 | 98.96516 | 1032 ft | 23 kts | 180° |
| 2026-04-20 20:07 | 18.76491 | 98.96517 | 1032 ft | 24 kts | 180° |
| 2026-04-20 20:07 | 18.76318 | 98.96518 | 1032 ft | 25 kts | 180° |
| 2026-04-20 20:08 | 18.76139 | 98.96518 | 1032 ft | 26 kts | 180° |
| 2026-04-20 20:08 | 18.75953 | 98.96516 | 1032 ft | 27 kts | 180° |
| 2026-04-20 20:08 | 18.75761 | 98.96516 | 1032 ft | 28 kts | 180° |
| 2026-04-20 20:08 | 18.75564 | 98.96515 | 1032 ft | 29 kts | 181° |
| 2026-04-20 20:09 | 18.75397 | 98.96440 | 1032 ft | 25 kts | 209° |
| 2026-04-20 20:09 | 18.75319 | 98.96336 | 1032 ft | 20 kts | 274° |
| 2026-04-20 20:09 | 18.75425 | 98.96285 | 1032 ft | 20 kts | 0° |
| 2026-04-20 20:09 | 18.75739 | 98.96286 | 1032 ft | 81 kts | 360° |
| 2026-04-20 20:10 | 18.76522 | 98.96286 | 1032 ft | 142 kts | 360° |
| 2026-04-20 20:10 | 18.77646 | 98.96284 | 1262 ft | 169 kts | 359° |
| 2026-04-20 20:10 | 18.78833 | 98.96276 | 1887 ft | 172 kts | 359° |
| 2026-04-20 20:10 | 18.80026 | 98.96276 | 2447 ft | 178 kts | 359° |
| 2026-04-20 20:11 | 18.81364 | 98.96281 | 2716 ft | 201 kts | 359° |
| 2026-04-20 20:11 | 18.82826 | 98.96287 | 2943 ft | 225 kts | 359° |
| 2026-04-20 20:11 | 18.84504 | 98.96315 | 3248 ft | 250 kts | 5° |
| 2026-04-20 20:11 | 18.86147 | 98.97006 | 3672 ft | 272 kts | 40° |
| 2026-04-20 20:12 | 18.87197 | 98.98691 | 4356 ft | 283 kts | 74° |
| 2026-04-20 20:12 | 18.87393 | 99.00768 | 5136 ft | 287 kts | 92° |
| 2026-04-20 20:12 | 18.87197 | 99.02898 | 6031 ft | 288 kts | 98° |
| 2026-04-20 20:13 | 18.85766 | 99.06759 | 7631 ft | 290 kts | 135° |
| 2026-04-20 20:13 | 18.84185 | 99.08023 | 8422 ft | 291 kts | 155° |
| 2026-04-20 20:13 | 18.82238 | 99.08571 | 9215 ft | 292 kts | 178° |
| 2026-04-20 20:13 | 18.80203 | 99.08626 | 10010 ft | 294 kts | 180° |
| 2026-04-20 20:14 | 18.78153 | 99.08630 | 10715 ft | 297 kts | 181° |
| 2026-04-20 20:14 | 18.76068 | 99.08614 | 11401 ft | 301 kts | 181° |
| 2026-04-20 20:14 | 18.73957 | 99.08592 | 12082 ft | 305 kts | 181° |
| 2026-04-20 20:14 | 18.71803 | 99.08571 | 12597 ft | 316 kts | 181° |
| 2026-04-20 20:15 | 18.69572 | 99.08558 | 13167 ft | 324 kts | 181° |
| 2026-04-20 20:15 | 18.67300 | 99.08551 | 13789 ft | 329 kts | 181° |
| 2026-04-20 20:15 | 18.64969 | 99.08546 | 14102 ft | 344 kts | 181° |
| 2026-04-20 20:15 | 18.62509 | 99.08540 | 14230 ft | 364 kts | 181° |
| 2026-04-20 20:16 | 18.59943 | 99.08533 | 14614 ft | 373 kts | 181° |
| 2026-04-20 20:16 | 18.57332 | 99.08522 | 15119 ft | 377 kts | 181° |
| 2026-04-20 20:16 | 18.54691 | 99.08512 | 15648 ft | 382 kts | 181° |
| 2026-04-20 20:16 | 18.52039 | 99.08841 | 16157 ft | 388 kts | 167° |
| 2026-04-20 20:17 | 18.49490 | 99.09828 | 16674 ft | 394 kts | 154° |
| 2026-04-20 20:17 | 18.47163 | 99.11383 | 17157 ft | 399 kts | 142° |
| 2026-04-20 20:17 | 18.45015 | 99.13264 | 17654 ft | 404 kts | 141° |
| 2026-04-20 20:17 | 18.42841 | 99.15158 | 18141 ft | 408 kts | 141° |
| 2026-04-20 20:18 | 18.40637 | 99.17058 | 18574 ft | 411 kts | 141° |
| 2026-04-20 20:18 | 18.38412 | 99.18968 | 19036 ft | 414 kts | 141° |
| 2026-04-20 20:18 | 18.36171 | 99.20889 | 19488 ft | 417 kts | 141° |
| 2026-04-20 20:18 | 18.33917 | 99.22823 | 19944 ft | 419 kts | 141° |
| 2026-04-20 20:19 | 18.31649 | 99.24771 | 20396 ft | 422 kts | 141° |
| 2026-04-20 20:19 | 18.29370 | 99.26728 | 20843 ft | 425 kts | 141° |
| 2026-04-20 20:19 | 18.27072 | 99.28704 | 21314 ft | 428 kts | 141° |
| 2026-04-20 20:19 | 18.24728 | 99.30655 | 21748 ft | 431 kts | 146° |
| 2026-04-20 20:20 | 18.22143 | 99.32260 | 22178 ft | 433 kts | 155° |
| 2026-04-20 20:20 | 18.19332 | 99.33408 | 22619 ft | 434 kts | 163° |
| 2026-04-20 20:20 | 18.16441 | 99.34369 | 23044 ft | 437 kts | 163° |
| 2026-04-20 20:20 | 18.13533 | 99.35337 | 23438 ft | 440 kts | 163° |
| 2026-04-20 20:21 | 18.10607 | 99.36312 | 23766 ft | 442 kts | 163° |
| 2026-04-20 20:21 | 18.07665 | 99.37293 | 24101 ft | 445 kts | 163° |
| 2026-04-20 20:21 | 18.04708 | 99.38280 | 24432 ft | 447 kts | 163° |
| 2026-04-20 20:21 | 18.01737 | 99.39273 | 24747 ft | 449 kts | 163° |
| 2026-04-20 20:22 | 17.98751 | 99.40271 | 25074 ft | 451 kts | 163° |
| 2026-04-20 20:22 | 17.95750 | 99.41274 | 25382 ft | 454 kts | 163° |
| 2026-04-20 20:22 | 17.92740 | 99.42277 | 25699 ft | 456 kts | 163° |
| 2026-04-20 20:22 | 17.89710 | 99.43289 | 26004 ft | 458 kts | 164° |
| 2026-04-20 20:23 | 17.86666 | 99.44305 | 26318 ft | 460 kts | 164° |
| 2026-04-20 20:23 | 17.83607 | 99.45324 | 26596 ft | 462 kts | 164° |
| 2026-04-20 20:23 | 17.80536 | 99.46347 | 26888 ft | 464 kts | 164° |
| 2026-04-20 20:23 | 17.77490 | 99.47359 | 27160 ft | 466 kts | 164° |
| 2026-04-20 20:24 | 17.74388 | 99.48390 | 27445 ft | 469 kts | 164° |
| 2026-04-20 20:24 | 17.71272 | 99.49429 | 27725 ft | 471 kts | 164° |
| 2026-04-20 20:24 | 17.68143 | 99.50473 | 28008 ft | 473 kts | 164° |
| 2026-04-20 20:24 | 17.65003 | 99.51520 | 28284 ft | 475 kts | 164° |
| 2026-04-20 20:25 | 17.61849 | 99.52570 | 28556 ft | 477 kts | 164° |
| 2026-04-20 20:25 | 17.58682 | 99.53623 | 28818 ft | 478 kts | 164° |
| 2026-04-20 20:25 | 17.55503 | 99.54680 | 29069 ft | 480 kts | 164° |
| 2026-04-20 20:25 | 17.52312 | 99.55740 | 29318 ft | 482 kts | 164° |
| 2026-04-20 20:26 | 17.49109 | 99.56805 | 29546 ft | 484 kts | 164° |
| 2026-04-20 20:26 | 17.45896 | 99.57874 | 29777 ft | 485 kts | 164° |
| 2026-04-20 20:26 | 17.42677 | 99.58942 | 29981 ft | 487 kts | 164° |
| 2026-04-20 20:26 | 17.39444 | 99.60015 | 30198 ft | 488 kts | 164° |
| 2026-04-20 20:27 | 17.36206 | 99.61090 | 30411 ft | 488 kts | 164° |
| 2026-04-20 20:27 | 17.32964 | 99.62169 | 30610 ft | 489 kts | 164° |
| 2026-04-20 20:27 | 17.29720 | 99.63245 | 30759 ft | 488 kts | 165° |
| 2026-04-20 20:27 | 17.26516 | 99.64302 | 30800 ft | 477 kts | 165° |
| 2026-04-20 20:28 | 17.20260 | 99.66370 | 30799 ft | 469 kts | 165° |
| 2026-04-20 20:28 | 17.14044 | 99.68424 | 30799 ft | 468 kts | 165° |
| 2026-04-20 20:29 | 17.07830 | 99.70477 | 30797 ft | 468 kts | 164° |
| 2026-04-20 20:29 | 17.01623 | 99.72528 | 30796 ft | 468 kts | 164° |
| 2026-04-20 20:30 | 16.95409 | 99.74578 | 30798 ft | 468 kts | 165° |
| 2026-04-20 20:30 | 16.89196 | 99.76631 | 30794 ft | 468 kts | 165° |
| 2026-04-20 20:31 | 16.82987 | 99.78678 | 30797 ft | 468 kts | 165° |
| 2026-04-20 20:31 | 16.76784 | 99.80720 | 30791 ft | 468 kts | 164° |
| 2026-04-20 20:32 | 16.70571 | 99.82770 | 30790 ft | 468 kts | 164° |
| 2026-04-20 20:32 | 16.64358 | 99.84823 | 30792 ft | 469 kts | 164° |
| 2026-04-20 20:33 | 16.58175 | 99.86859 | 30789 ft | 469 kts | 164° |
| 2026-04-20 20:33 | 16.51945 | 99.88900 | 30791 ft | 469 kts | 164° |
| 2026-04-20 20:34 | 16.45680 | 99.90953 | 30793 ft | 469 kts | 164° |
| 2026-04-20 20:34 | 16.39448 | 99.93003 | 30790 ft | 470 kts | 164° |
| 2026-04-20 20:35 | 16.33252 | 99.95036 | 30792 ft | 470 kts | 164° |
| 2026-04-20 20:35 | 16.27015 | 99.97092 | 30793 ft | 470 kts | 164° |
| 2026-04-20 20:36 | 16.20781 | 99.99154 | 30797 ft | 470 kts | 164° |
| 2026-04-20 20:36 | 16.14548 | 100.01209 | 30797 ft | 470 kts | 164° |
| 2026-04-20 20:37 | 16.08319 | 100.03261 | 30798 ft | 470 kts | 163° |
| 2026-04-20 20:37 | 16.02088 | 100.05310 | 30801 ft | 469 kts | 163° |
| 2026-04-20 20:38 | 15.95862 | 100.07361 | 30804 ft | 469 kts | 163° |
| 2026-04-20 20:38 | 15.89636 | 100.09411 | 30805 ft | 469 kts | 163° |
| 2026-04-20 20:39 | 15.83408 | 100.11458 | 30801 ft | 469 kts | 163° |
| 2026-04-20 20:39 | 15.77222 | 100.13493 | 30811 ft | 469 kts | 163° |
| 2026-04-20 20:40 | 15.70994 | 100.15536 | 30812 ft | 469 kts | 163° |
| 2026-04-20 20:40 | 15.64763 | 100.17583 | 30821 ft | 475 kts | 163° |
| 2026-04-20 20:41 | 15.58379 | 100.19681 | 29862 ft | 483 kts | 163° |
| 2026-04-20 20:41 | 15.55167 | 100.20730 | 28404 ft | 482 kts | 163° |
| 2026-04-20 20:41 | 15.52002 | 100.21763 | 27501 ft | 469 kts | 163° |
| 2026-04-20 20:42 | 15.49934 | 100.22439 | 27139 ft | 455 kts | 163° |
| 2026-04-20 20:42 | 15.46027 | 100.23722 | 26334 ft | 435 kts | 163° |
| 2026-04-20 20:42 | 15.43186 | 100.24656 | 25755 ft | 422 kts | 163° |
| 2026-04-20 20:42 | 15.40425 | 100.25563 | 25211 ft | 409 kts | 163° |
| 2026-04-20 20:43 | 15.37746 | 100.26441 | 24693 ft | 402 kts | 163° |
| 2026-04-20 20:43 | 15.35978 | 100.27019 | 24345 ft | 401 kts | 163° |
| 2026-04-20 20:43 | 15.33323 | 100.27885 | 23848 ft | 398 kts | 163° |
| 2026-04-20 20:43 | 15.30695 | 100.28741 | 23361 ft | 395 kts | 163° |
| 2026-04-20 20:44 | 15.28083 | 100.29593 | 22829 ft | 392 kts | 163° |
| 2026-04-20 20:44 | 15.25505 | 100.30477 | 22386 ft | 389 kts | 161° |
| 2026-04-20 20:44 | 15.22967 | 100.31427 | 21938 ft | 386 kts | 160° |
| 2026-04-20 20:44 | 15.20464 | 100.32411 | 21483 ft | 383 kts | 159° |
| 2026-04-20 20:45 | 15.17989 | 100.33401 | 21033 ft | 379 kts | 159° |
| 2026-04-20 20:45 | 15.15532 | 100.34379 | 20578 ft | 380 kts | 159° |
| 2026-04-20 20:45 | 15.13067 | 100.35349 | 20110 ft | 378 kts | 160° |
| 2026-04-20 20:45 | 15.10606 | 100.36306 | 19641 ft | 378 kts | 160° |
| 2026-04-20 20:46 | 15.08144 | 100.37256 | 19161 ft | 378 kts | 160° |
| 2026-04-20 20:46 | 15.05680 | 100.38200 | 18672 ft | 378 kts | 160° |
| 2026-04-20 20:46 | 15.03213 | 100.39147 | 18180 ft | 378 kts | 160° |
| 2026-04-20 20:46 | 15.00745 | 100.40096 | 17636 ft | 378 kts | 160° |
| 2026-04-20 20:47 | 14.98285 | 100.41042 | 17143 ft | 376 kts | 160° |
| 2026-04-20 20:47 | 14.95839 | 100.41983 | 16665 ft | 374 kts | 160° |
| 2026-04-20 20:47 | 14.93406 | 100.42919 | 16183 ft | 372 kts | 160° |
| 2026-04-20 20:47 | 14.90983 | 100.43850 | 15709 ft | 371 kts | 160° |
| 2026-04-20 20:48 | 14.88569 | 100.44777 | 15227 ft | 369 kts | 160° |
| 2026-04-20 20:48 | 14.86171 | 100.45701 | 14759 ft | 368 kts | 160° |
| 2026-04-20 20:48 | 14.83777 | 100.46622 | 14283 ft | 367 kts | 160° |
| 2026-04-20 20:48 | 14.81390 | 100.47537 | 13809 ft | 365 kts | 160° |
| 2026-04-20 20:49 | 14.79011 | 100.48448 | 13275 ft | 364 kts | 160° |
| 2026-04-20 20:49 | 14.76649 | 100.49354 | 12913 ft | 358 kts | 160° |
| 2026-04-20 20:49 | 14.74360 | 100.50237 | 12791 ft | 344 kts | 160° |
| 2026-04-20 20:49 | 14.72185 | 100.51076 | 12634 ft | 323 kts | 160° |
| 2026-04-20 20:50 | 14.70110 | 100.51863 | 12174 ft | 312 kts | 162° |
| 2026-04-20 20:50 | 14.68056 | 100.52527 | 11889 ft | 309 kts | 165° |
| 2026-04-20 20:50 | 14.65985 | 100.53119 | 11659 ft | 308 kts | 166° |
| 2026-04-20 20:50 | 14.63918 | 100.53683 | 11303 ft | 307 kts | 166° |
| 2026-04-20 20:51 | 14.61850 | 100.54243 | 10904 ft | 307 kts | 166° |
| 2026-04-20 20:51 | 14.59784 | 100.54809 | 10500 ft | 308 kts | 166° |
| 2026-04-20 20:51 | 14.57716 | 100.55385 | 10149 ft | 306 kts | 166° |
| 2026-04-20 20:51 | 14.55668 | 100.55962 | 9814 ft | 304 kts | 165° |
| 2026-04-20 20:52 | 14.53642 | 100.56539 | 9436 ft | 302 kts | 165° |
| 2026-04-20 20:52 | 14.51627 | 100.57117 | 9069 ft | 300 kts | 166° |
| 2026-04-20 20:52 | 14.49625 | 100.57691 | 8715 ft | 297 kts | 165° |
| 2026-04-20 20:52 | 14.47641 | 100.58258 | 8321 ft | 295 kts | 166° |
| 2026-04-20 20:53 | 14.45674 | 100.58819 | 7959 ft | 292 kts | 165° |
| 2026-04-20 20:53 | 14.43779 | 100.59361 | 7813 ft | 280 kts | 166° |
| 2026-04-20 20:53 | 14.42550 | 100.59713 | 7732 ft | 272 kts | 166° |
| 2026-04-20 20:53 | 14.42280 | 100.59791 | 7710 ft | 271 kts | 166° |
| 2026-04-20 20:54 | 14.40544 | 100.60288 | 7596 ft | 259 kts | 166° |
| 2026-04-20 20:54 | 14.40179 | 100.60393 | 7557 ft | 258 kts | 166° |
| 2026-04-20 20:54 | 14.38473 | 100.60881 | 7303 ft | 252 kts | 166° |
| 2026-04-20 20:54 | 14.36804 | 100.61357 | 7173 ft | 248 kts | 166° |
| 2026-04-20 20:55 | 14.35133 | 100.61830 | 6997 ft | 249 kts | 166° |
| 2026-04-20 20:55 | 14.33469 | 100.62300 | 6799 ft | 248 kts | 166° |
| 2026-04-20 20:55 | 14.31809 | 100.62771 | 6599 ft | 247 kts | 166° |
| 2026-04-20 20:55 | 14.30159 | 100.63240 | 6408 ft | 246 kts | 166° |
| 2026-04-20 20:56 | 14.28518 | 100.63710 | 6195 ft | 245 kts | 166° |
| 2026-04-20 20:56 | 14.26881 | 100.64180 | 5984 ft | 244 kts | 166° |
| 2026-04-20 20:56 | 14.25249 | 100.64646 | 5780 ft | 243 kts | 166° |
| 2026-04-20 20:56 | 14.23626 | 100.65110 | 5579 ft | 242 kts | 166° |
| 2026-04-20 20:57 | 14.22007 | 100.65571 | 5385 ft | 241 kts | 166° |
| 2026-04-20 20:57 | 14.20397 | 100.66029 | 5185 ft | 240 kts | 166° |
| 2026-04-20 20:57 | 14.18791 | 100.66486 | 4991 ft | 239 kts | 167° |
| 2026-04-20 20:57 | 14.17173 | 100.66945 | 4572 ft | 242 kts | 167° |
| 2026-04-20 20:58 | 14.15563 | 100.67401 | 4272 ft | 238 kts | 166° |
| 2026-04-20 20:58 | 14.13976 | 100.67853 | 3934 ft | 236 kts | 166° |
| 2026-04-20 20:58 | 14.12398 | 100.68303 | 3566 ft | 236 kts | 166° |
| 2026-04-20 20:58 | 14.10831 | 100.68748 | 3326 ft | 230 kts | 166° |
| 2026-04-20 20:59 | 14.09318 | 100.69180 | 3187 ft | 220 kts | 165° |
| 2026-04-20 20:59 | 14.07861 | 100.69461 | 3104 ft | 206 kts | 179° |
| 2026-04-20 20:59 | 14.06476 | 100.69296 | 2989 ft | 196 kts | 195° |
| 2026-04-20 20:59 | 14.05261 | 100.68746 | 2758 ft | 184 kts | 207° |
| 2026-04-20 21:00 | 14.04181 | 100.68139 | 2522 ft | 169 kts | 207° |
| 2026-04-20 21:00 | 14.03219 | 100.67597 | 2338 ft | 148 kts | 207° |
| 2026-04-20 21:00 | 14.02345 | 100.67106 | 2152 ft | 140 kts | 206° |
| 2026-04-20 21:00 | 14.01506 | 100.66635 | 1981 ft | 136 kts | 206° |
| 2026-04-20 21:01 | 14.00682 | 100.66173 | 1807 ft | 135 kts | 206° |
| 2026-04-20 21:01 | 13.99862 | 100.65712 | 1639 ft | 134 kts | 206° |
| 2026-04-20 21:01 | 13.99056 | 100.65258 | 1458 ft | 135 kts | 205° |
| 2026-04-20 21:01 | 13.98239 | 100.64799 | 1267 ft | 133 kts | 204° |
| 2026-04-20 21:02 | 13.97422 | 100.64340 | 1052 ft | 134 kts | 207° |
| 2026-04-20 21:02 | 13.96603 | 100.63878 | 883 ft | 134 kts | 207° |
| 2026-04-20 21:02 | 13.95771 | 100.63416 | 691 ft | 137 kts | 206° |
| 2026-04-20 21:02 | 13.94930 | 100.62945 | 547 ft | 139 kts | 206° |
| 2026-04-20 21:03 | 13.94080 | 100.62465 | 397 ft | 140 kts | 206° |
| 2026-04-20 21:03 | 13.93222 | 100.61974 | 212 ft | 142 kts | 206° |
| 2026-04-20 21:03 | 13.92360 | 100.61497 | 47 ft | 140 kts | 206° |
| 2026-04-20 21:03 | 13.91590 | 100.61072 | 18 ft | 107 kts | 208° |
| 2026-04-20 21:04 | 13.91064 | 100.60777 | 18 ft | 68 kts | 208° |
| 2026-04-20 21:04 | 13.90713 | 100.60582 | 20 ft | 52 kts | 207° |
| 2026-04-20 21:04 | 13.90415 | 100.60417 | 19 ft | 46 kts | 207° |
| 2026-04-20 21:04 | 13.90176 | 100.60279 | 17 ft | 23 kts | 212° |
| 2026-04-20 21:05 | 13.90167 | 100.60136 | 17 ft | 23 kts | 298° |
| 2026-04-20 21:05 | 13.90245 | 100.59988 | 19 ft | 24 kts | 298° |
| 2026-04-20 21:05 | 13.90327 | 100.59836 | 16 ft | 21 kts | 298° |
| 2026-04-20 21:05 | 13.90435 | 100.59818 | 17 ft | 19 kts | 29° |
| 2026-04-20 21:06 | 13.90555 | 100.59884 | 17 ft | 20 kts | 28° |
| 2026-04-20 21:06 | 13.90684 | 100.59957 | 17 ft | 22 kts | 29° |
| 2026-04-20 21:06 | 13.90821 | 100.60036 | 17 ft | 24 kts | 29° |
| 2026-04-20 21:06 | 13.90970 | 100.60117 | 18 ft | 25 kts | 28° |
| 2026-04-20 21:07 | 13.91132 | 100.60208 | 18 ft | 27 kts | 29° |
| 2026-04-20 21:07 | 13.91297 | 100.60301 | 17 ft | 21 kts | 28° |
| 2026-04-20 21:07 | 13.91384 | 100.60340 | 17 ft | 11 kts | 355° |
| 2026-04-20 21:07 | 13.91429 | 100.60290 | 19 ft | 9 kts | 301° |
| 2026-04-20 21:08 | 13.91458 | 100.60237 | 19 ft | 8 kts | 306° |
| 2026-04-20 21:08 | 13.91498 | 100.60242 | 17 ft | 6 kts | 26° |
| 2026-04-20 21:08 | 13.91507 | 100.60247 | 17 ft | 5 kts | 27° |
| 2026-04-20 21:09 | 13.91522 | 100.60255 | 18 ft | 0 kts | 28° |
| 2026-04-20 21:09 | 13.91525 | 100.60257 | 17 ft | 0 kts | 33° |
| 2026-04-20 21:09 | 13.91529 | 100.60259 | 17 ft | 0 kts | 30° |